createdAt,value
2023-10-13T00:02:31.229Z,16.97
2023-10-13T00:07:32.762Z,16.80
2023-10-13T00:12:38.308Z,16.78
2023-10-13T00:17:39.931Z,16.59
2023-10-13T00:22:42.059Z,16.51
2023-10-13T00:27:45.192Z,16.57
2023-10-13T00:32:47.956Z,16.61
2023-10-13T00:37:49.457Z,16.63
2023-10-13T00:42:53.848Z,16.63
2023-10-13T00:47:59.442Z,16.62
2023-10-13T00:53:01.632Z,16.37
2023-10-13T00:58:08.639Z,16.36
2023-10-13T01:03:09.980Z,16.23
2023-10-13T01:08:12.960Z,16.38
2023-10-13T01:13:14.469Z,16.39
2023-10-13T01:18:17.542Z,16.26
2023-10-13T01:23:25.751Z,16.16
2023-10-13T01:28:27.086Z,16.14
2023-10-13T01:33:29.111Z,15.96
2023-10-13T01:38:34.309Z,16.06
2023-10-13T01:43:36.177Z,15.89
2023-10-13T01:48:41.477Z,16.05
2023-10-13T01:53:42.941Z,16.02
2023-10-13T01:58:44.248Z,16.10
2023-10-13T02:03:49.315Z,16.12
2023-10-13T02:08:52.344Z,16.03
2023-10-13T02:13:55.062Z,16.12
2023-10-13T02:18:56.466Z,15.82
2023-10-13T02:24:06.655Z,15.58
2023-10-13T02:29:19.092Z,15.68
2023-10-13T02:34:20.715Z,15.86
2023-10-13T02:39:26.779Z,15.86
2023-10-13T02:44:28.665Z,15.52
2023-10-13T02:49:37.997Z,15.48
2023-10-13T02:54:43.692Z,15.47
2023-10-13T02:59:47.868Z,15.39
2023-10-13T03:04:49.361Z,15.51
2023-10-13T03:09:53.731Z,15.47
2023-10-13T03:15:12.907Z,15.45
2023-10-13T03:20:15.309Z,15.28
2023-10-13T03:25:25.327Z,15.10
2023-10-13T03:30:36.911Z,15.10
2023-10-13T03:35:44.508Z,15.13
2023-10-13T03:41:08.231Z,15.14
2023-10-13T03:46:09.593Z,14.95
2023-10-13T03:51:17.544Z,15.07
2023-10-13T03:56:31.088Z,14.89
2023-10-13T04:01:59.952Z,14.86
2023-10-13T04:07:10.949Z,14.98
2023-10-13T04:12:12.431Z,14.90
2023-10-13T04:17:16.737Z,14.87
2023-10-13T04:22:22.005Z,14.67
2023-10-13T04:27:54.517Z,14.78
2023-10-13T04:33:28.065Z,14.88
2023-10-13T04:38:49.285Z,14.66
2023-10-13T04:43:56.870Z,14.53
2023-10-13T04:49:01.967Z,14.56
2023-10-13T04:54:13.913Z,14.62
2023-10-13T04:59:33.920Z,14.57
2023-10-13T05:05:01.147Z,14.52
2023-10-13T05:10:20.959Z,14.24
2023-10-13T05:15:40.856Z,14.31
2023-10-13T05:21:20.465Z,14.10
2023-10-13T05:26:44.700Z,14.35
2023-10-13T05:32:04.607Z,14.50
2023-10-13T05:37:32.187Z,14.36
2023-10-13T05:42:51.963Z,14.32
2023-10-13T05:48:12.805Z,14.35
2023-10-13T05:53:14.197Z,14.34
2023-10-13T05:58:34.754Z,14.42
2023-10-13T06:03:56.952Z,14.53
2023-10-13T06:09:17.262Z,14.19
2023-10-13T06:14:37.210Z,14.35
2023-10-13T06:19:57.217Z,14.42
2023-10-13T06:25:16.968Z,14.35
2023-10-13T06:30:18.417Z,14.49
2023-10-13T06:35:20.537Z,14.36
2023-10-13T06:40:34.657Z,14.39
2023-10-13T06:45:37.017Z,14.40
2023-10-13T06:50:43.115Z,14.52
2023-10-13T06:55:48.081Z,14.43
2023-10-13T07:00:59.063Z,14.62
2023-10-13T07:06:00.917Z,14.74
2023-10-13T07:11:05.226Z,14.74
2023-10-13T07:16:16.419Z,14.69
2023-10-13T07:21:33.400Z,14.78
2023-10-13T07:26:34.929Z,15.18
2023-10-13T07:31:38.814Z,15.44
2023-10-13T07:36:40.657Z,15.47
2023-10-13T07:41:45.149Z,15.27
2023-10-13T07:46:48.025Z,15.58
2023-10-13T07:51:52.379Z,15.87
2023-10-13T07:56:55.981Z,16.39
2023-10-13T08:02:34.584Z,16.26
2023-10-13T08:07:41.040Z,16.59
2023-10-13T08:12:45.200Z,16.64
2023-10-13T08:17:46.938Z,16.74
2023-10-13T08:22:48.720Z,17.71
2023-10-13T08:27:51.236Z,18.61
2023-10-13T08:32:56.011Z,18.69
2023-10-13T08:38:06.260Z,19.21
2023-10-13T08:43:17.719Z,19.75
2023-10-13T08:48:20.233Z,19.83
2023-10-13T08:53:40.229Z,20.11
2023-10-13T08:58:53.841Z,19.93
2023-10-13T09:03:55.668Z,19.95
2023-10-13T09:09:07.986Z,20.01
2023-10-13T09:14:09.606Z,20.52
2023-10-13T09:19:13.172Z,20.84
2023-10-13T09:24:28.407Z,20.86
2023-10-13T09:29:30.323Z,21.30
2023-10-13T09:34:34.565Z,21.47
2023-10-13T09:39:56.160Z,21.81
2023-10-13T09:45:00.191Z,22.05
2023-10-13T09:50:06.616Z,22.13
2023-10-13T09:55:10.134Z,22.25
2023-10-13T10:00:27.702Z,22.41
2023-10-13T10:05:35.440Z,22.85
2023-10-13T10:10:37.904Z,23.14
2023-10-13T10:15:45.645Z,23.26
2023-10-13T10:20:48.998Z,23.33
2023-10-13T10:25:52.646Z,23.40
2023-10-13T10:30:54.332Z,23.63
2023-10-13T10:35:55.652Z,23.51
2023-10-13T10:40:59.885Z,23.70
2023-10-13T10:46:01.308Z,24.00
2023-10-13T10:51:15.324Z,24.13
2023-10-13T10:56:26.718Z,24.18
2023-10-13T11:01:35.305Z,24.50
2023-10-13T11:06:43.514Z,24.69
2023-10-13T11:11:45.462Z,24.91
2023-10-13T11:16:51.682Z,25.27
2023-10-13T11:21:53.569Z,25.45
2023-10-13T11:26:55.888Z,25.72
2023-10-13T11:32:01.210Z,25.78
2023-10-13T11:37:22.452Z,26.12
2023-10-13T11:42:23.839Z,26.26
2023-10-13T11:47:49.089Z,26.70
2023-10-13T11:52:50.990Z,26.88
2023-10-13T11:57:52.344Z,26.86
2023-10-13T12:03:12.536Z,26.95
2023-10-13T12:08:22.948Z,27.49
2023-10-13T12:13:25.993Z,27.47
2023-10-13T12:18:29.193Z,27.50
2023-10-13T12:23:32.972Z,27.66
2023-10-13T12:28:41.705Z,27.77
2023-10-13T12:33:43.097Z,28.25
2023-10-13T12:38:47.546Z,28.41
2023-10-13T12:44:14.792Z,29.14
2023-10-13T12:49:36.030Z,29.49
2023-10-13T12:54:37.415Z,29.55
2023-10-13T12:59:40.028Z,30.03
2023-10-13T13:04:45.100Z,30.39
2023-10-13T13:09:46.395Z,30.07
2023-10-13T13:14:47.821Z,30.45
2023-10-13T13:19:49.189Z,30.43
2023-10-13T13:24:50.591Z,30.63
2023-10-13T13:29:52.030Z,30.71
2023-10-13T13:35:06.406Z,30.85
2023-10-13T13:40:17.471Z,30.83
2023-10-13T13:45:29.008Z,31.32
2023-10-13T13:50:31.154Z,31.09
2023-10-13T13:55:32.632Z,30.77
2023-10-13T14:00:43.999Z,30.56
2023-10-13T14:05:45.371Z,30.89
2023-10-13T14:11:19.168Z,31.17
2023-10-13T14:16:21.472Z,30.97
2023-10-13T14:21:26.054Z,30.91
2023-10-13T14:26:27.420Z,30.85
2023-10-13T14:31:28.717Z,31.19
2023-10-13T14:36:30.196Z,31.05
2023-10-13T14:41:32.743Z,30.92
2023-10-13T14:46:36.997Z,30.79
2023-10-13T14:51:40.880Z,30.55
2023-10-13T14:56:45.685Z,30.57
2023-10-13T15:01:47.850Z,30.64
2023-10-13T15:06:49.298Z,30.70
2023-10-13T15:11:54.437Z,30.36
2023-10-13T15:16:56.496Z,29.60
2023-10-13T15:21:58.228Z,28.94
2023-10-13T15:27:03.442Z,28.31
2023-10-13T15:32:05.395Z,27.77
2023-10-13T15:37:06.750Z,27.41
2023-10-13T15:42:08.015Z,27.09
2023-10-13T15:52:17.458Z,25.71
2023-10-13T15:57:19.737Z,25.43
2023-10-13T16:02:25.115Z,25.14
2023-10-13T16:07:29.562Z,24.78
2023-10-13T16:12:30.987Z,24.57
2023-10-13T16:17:32.703Z,24.13
2023-10-13T16:22:34.009Z,23.80
2023-10-13T16:27:40.168Z,23.55
2023-10-13T16:32:41.569Z,23.10
2023-10-13T16:37:42.878Z,22.99
2023-10-13T16:42:44.164Z,22.70
2023-10-13T16:47:45.457Z,21.79
2023-10-13T16:52:49.917Z,22.01
2023-10-13T16:57:51.604Z,21.39
2023-10-13T17:02:54.045Z,21.45
2023-10-13T17:07:57.762Z,21.36
2023-10-13T17:13:00.724Z,20.83
2023-10-13T17:18:06.363Z,20.76
2023-10-13T17:23:12.227Z,20.86
2023-10-13T17:28:16.634Z,20.75
2023-10-13T17:33:18.108Z,20.42
2023-10-13T17:38:19.386Z,20.20
2023-10-13T17:43:20.649Z,20.28
2023-10-13T17:48:23.988Z,19.99
2023-10-13T17:53:25.317Z,19.66
2023-10-13T17:58:26.499Z,19.88
2023-10-13T18:03:27.804Z,19.71
2023-10-13T18:08:29.209Z,19.63
2023-10-13T18:13:31.454Z,19.52
2023-10-13T18:18:32.665Z,19.25
2023-10-13T18:23:33.961Z,19.17
2023-10-13T18:28:35.282Z,18.80
2023-10-13T18:33:37.978Z,18.89
2023-10-13T18:38:39.284Z,18.70
2023-10-13T18:43:40.636Z,18.40
2023-10-13T18:48:42.701Z,18.41
2023-10-13T18:53:44.859Z,18.42
2023-10-13T18:58:49.611Z,18.23
2023-10-13T19:03:52.574Z,18.26
2023-10-13T19:08:53.928Z,18.37
2023-10-13T19:13:55.201Z,18.15
2023-10-13T19:19:00.282Z,17.93
2023-10-13T19:24:01.919Z,17.60
2023-10-13T19:29:06.614Z,17.89
2023-10-13T19:34:08.181Z,17.80
2023-10-13T19:39:20.663Z,17.77
2023-10-13T19:44:21.982Z,17.57
2023-10-13T19:49:26.539Z,17.06
2023-10-13T19:54:27.978Z,17.21
2023-10-13T19:59:29.448Z,17.33
2023-10-13T20:04:30.790Z,17.35
2023-10-13T20:09:32.111Z,17.45
2023-10-13T20:14:33.478Z,17.29
2023-10-13T20:19:34.746Z,17.16
2023-10-13T20:24:36.972Z,16.85
2023-10-13T20:29:40.945Z,16.38
2023-10-13T20:34:42.724Z,16.18
2023-10-13T20:39:44.810Z,16.54
2023-10-13T20:44:46.065Z,16.46
2023-10-13T20:49:47.718Z,16.43
2023-10-13T20:54:50.234Z,16.29
2023-10-13T20:59:51.551Z,16.18
2023-10-13T21:04:52.888Z,16.14
2023-10-13T21:09:55.862Z,16.00
2023-10-13T21:14:57.164Z,15.88
2023-10-13T21:19:58.365Z,15.98
2023-10-13T21:25:00.229Z,15.96
2023-10-13T21:30:02.093Z,15.89
2023-10-13T21:35:04.569Z,15.49
2023-10-13T21:40:05.852Z,15.69
2023-10-13T21:45:11.373Z,15.59
2023-10-13T21:50:18.815Z,15.44
2023-10-13T21:55:20.131Z,15.30
2023-10-13T22:00:24.240Z,15.34
2023-10-13T22:05:25.544Z,15.22
2023-10-13T22:10:26.809Z,15.30
2023-10-13T22:15:29.045Z,15.06
2023-10-13T22:20:30.287Z,14.93
2023-10-13T22:25:31.543Z,14.71
2023-10-13T22:30:33.281Z,14.69
2023-10-13T22:35:34.587Z,14.70
2023-10-13T22:40:35.907Z,14.45
2023-10-13T22:45:37.158Z,14.60
2023-10-13T22:50:38.398Z,14.24
2023-10-13T22:55:44.894Z,14.62
2023-10-13T23:00:49.831Z,14.25
2023-10-13T23:05:55.728Z,14.36
2023-10-13T23:11:01.670Z,14.25
2023-10-13T23:16:04.017Z,14.26
2023-10-13T23:21:07.859Z,14.53
2023-10-13T23:26:13.003Z,14.44
2023-10-13T23:31:14.394Z,14.42
2023-10-13T23:36:20.006Z,14.39
2023-10-13T23:41:24.578Z,14.24
2023-10-13T23:46:26.940Z,14.30
2023-10-13T23:51:28.662Z,14.04
2023-10-13T23:56:30.454Z,14.10
